createdAt,value
2022-09-22T00:00:13.230Z,85.30
2022-09-22T00:01:13.681Z,85.20
2022-09-22T00:02:19.413Z,85.40
2022-09-22T00:03:13.397Z,85.60
2022-09-22T00:04:13.678Z,86.10
2022-09-22T00:05:13.674Z,86.10
2022-09-22T00:06:13.529Z,86.50
2022-09-22T00:07:13.807Z,86.60
2022-09-22T00:08:13.783Z,86.40
2022-09-22T00:09:13.659Z,86.70
2022-09-22T00:10:13.709Z,86.70
2022-09-22T00:11:14.098Z,86.20
2022-09-22T00:12:13.207Z,86.40
2022-09-22T00:13:13.381Z,86.40
2022-09-22T00:14:13.688Z,86.50
2022-09-22T00:15:13.697Z,86.20
2022-09-22T00:16:13.692Z,86.60
2022-09-22T00:17:13.693Z,86.80
2022-09-22T00:18:13.940Z,86.70
2022-09-22T00:19:12.945Z,86.70
2022-09-22T00:20:12.869Z,86.80
2022-09-22T00:21:12.829Z,87.10
2022-09-22T00:22:13.843Z,87.10
2022-09-22T00:23:14.013Z,87.00
2022-09-22T00:24:13.181Z,87.20
2022-09-22T00:25:13.222Z,87.30
2022-09-22T00:26:13.484Z,87.20
2022-09-22T00:27:13.943Z,87.30
2022-09-22T00:28:12.884Z,87.50
2022-09-22T00:29:13.729Z,87.30
2022-09-22T00:30:13.740Z,87.90
2022-09-22T00:31:13.816Z,88.10
2022-09-22T00:32:13.717Z,87.90
2022-09-22T00:33:13.936Z,88.10
2022-09-22T00:34:12.878Z,88.00
2022-09-22T00:35:13.925Z,88.00
2022-09-22T00:36:13.386Z,87.80
2022-09-22T00:37:13.305Z,87.70
2022-09-22T00:38:13.248Z,87.60
2022-09-22T00:39:13.232Z,87.70
2022-09-22T00:40:13.481Z,87.60
2022-09-22T00:41:13.675Z,87.90
2022-09-22T00:42:13.987Z,88.20
2022-09-22T00:43:12.935Z,87.90
2022-09-22T00:44:12.820Z,87.90
2022-09-22T00:45:13.792Z,88.60
2022-09-22T00:46:14.085Z,88.50
2022-09-22T00:47:13.118Z,88.60
2022-09-22T00:48:13.576Z,88.70
2022-09-22T00:49:13.569Z,88.50
2022-09-22T00:50:13.692Z,88.10
2022-09-22T00:51:13.846Z,87.90
2022-09-22T00:52:13.859Z,87.70
2022-09-22T00:53:13.842Z,87.60
2022-09-22T00:54:14.348Z,87.70
2022-09-22T00:55:13.529Z,87.40
2022-09-22T00:56:13.669Z,87.70
2022-09-22T00:57:13.642Z,87.50
2022-09-22T00:58:13.561Z,87.30
2022-09-22T00:59:13.437Z,87.50
2022-09-22T01:00:13.494Z,87.50
2022-09-22T01:01:13.615Z,87.90
2022-09-22T01:02:13.840Z,88.00
2022-09-22T01:03:12.829Z,88.10
2022-09-22T01:04:13.846Z,88.50
2022-09-22T01:05:13.718Z,88.20
2022-09-22T01:06:14.201Z,88.10
2022-09-22T01:07:13.072Z,88.40
2022-09-22T01:08:13.126Z,88.00
2022-09-22T01:09:13.136Z,87.90
2022-09-22T01:10:13.457Z,87.70
2022-09-22T01:11:13.662Z,87.80
2022-09-22T01:12:13.646Z,87.70
2022-09-22T01:13:13.764Z,87.70
2022-09-22T01:14:13.640Z,87.70
2022-09-22T01:15:13.703Z,87.60
2022-09-22T01:16:13.929Z,87.30
2022-09-22T01:17:13.148Z,87.20
2022-09-22T01:18:13.340Z,87.90
2022-09-22T01:19:13.475Z,88.30
2022-09-22T01:20:13.704Z,87.90
2022-09-22T01:21:13.586Z,88.60
2022-09-22T01:22:14.043Z,88.90
2022-09-22T01:23:13.190Z,89.10
2022-09-22T01:24:13.258Z,89.20
2022-09-22T01:25:13.162Z,89.00
2022-09-22T01:26:13.238Z,89.50
2022-09-22T01:27:13.179Z,89.60
2022-09-22T01:28:13.375Z,89.40
2022-09-22T01:29:13.478Z,89.00
2022-09-22T01:30:13.921Z,89.00
2022-09-22T01:31:13.242Z,88.90
2022-09-22T01:32:13.357Z,88.40
2022-09-22T01:33:13.389Z,88.80
2022-09-22T01:34:13.362Z,89.60
2022-09-22T01:35:13.491Z,90.00
2022-09-22T01:36:14.955Z,89.80
2022-09-22T01:37:12.960Z,89.80
2022-09-22T01:38:12.885Z,89.60
2022-09-22T01:39:14.088Z,89.80
2022-09-22T01:40:13.128Z,89.20
2022-09-22T01:41:13.106Z,88.60
2022-09-22T01:42:12.928Z,88.70
2022-09-22T01:43:12.954Z,88.50
2022-09-22T01:44:12.977Z,88.60
2022-09-22T01:45:12.816Z,88.60
2022-09-22T01:46:13.799Z,88.60
2022-09-22T01:47:13.820Z,88.40
2022-09-22T01:48:14.049Z,88.00
2022-09-22T01:49:13.670Z,87.90
2022-09-22T01:50:13.899Z,88.20
2022-09-22T01:51:13.196Z,88.30
2022-09-22T01:52:13.048Z,88.20
2022-09-22T01:53:13.259Z,88.40
2022-09-22T01:54:13.534Z,88.50
2022-09-22T01:55:13.874Z,88.60
2022-09-22T01:56:14.180Z,88.40
2022-09-22T01:57:13.458Z,88.70
2022-09-22T01:58:13.612Z,89.10
2022-09-22T01:59:13.783Z,89.00
2022-09-22T02:00:14.074Z,88.70
2022-09-22T02:01:14.977Z,88.70
2022-09-22T02:02:13.248Z,89.10
2022-09-22T02:03:13.554Z,89.30
2022-09-22T02:04:13.442Z,89.30
2022-09-22T02:05:13.433Z,89.50
2022-09-22T02:06:13.532Z,89.40
2022-09-22T02:07:13.492Z,89.10
2022-09-22T02:08:13.478Z,88.90
2022-09-22T02:09:13.426Z,89.30
2022-09-22T02:10:13.471Z,89.40
2022-09-22T02:11:13.306Z,89.50
2022-09-22T02:12:13.394Z,89.70
2022-09-22T02:13:13.470Z,89.80
2022-09-22T02:14:13.481Z,89.80
2022-09-22T02:15:13.515Z,89.70
2022-09-22T02:16:13.600Z,89.20
2022-09-22T02:17:13.659Z,89.70
2022-09-22T02:18:13.531Z,90.10
2022-09-22T02:19:13.865Z,90.70
2022-09-22T02:20:12.915Z,91.10
2022-09-22T02:21:12.749Z,91.20
2022-09-22T02:22:13.719Z,91.20
2022-09-22T02:23:14.077Z,90.90
2022-09-22T02:24:13.347Z,90.30
2022-09-22T02:25:13.188Z,90.90
2022-09-22T02:26:13.262Z,91.00
2022-09-22T02:27:13.080Z,91.20
2022-09-22T02:28:13.031Z,91.60
2022-09-22T02:29:12.955Z,91.30
2022-09-22T02:30:12.751Z,90.90
2022-09-22T02:31:20.484Z,90.40
2022-09-22T02:32:13.896Z,90.20
2022-09-22T02:33:13.026Z,89.90
2022-09-22T02:34:13.102Z,90.30
2022-09-22T02:35:13.092Z,90.70
2022-09-22T02:36:12.972Z,91.10
2022-09-22T02:37:13.254Z,91.20
2022-09-22T02:38:18.486Z,90.80
2022-09-22T02:39:13.525Z,90.40
2022-09-22T02:40:13.537Z,90.10
2022-09-22T02:41:13.458Z,90.20
2022-09-22T02:42:13.323Z,90.30
2022-09-22T02:43:13.609Z,91.00
2022-09-22T02:44:13.500Z,91.10
2022-09-22T02:45:13.451Z,91.40
2022-09-22T02:46:13.645Z,91.40
2022-09-22T02:47:13.710Z,91.00
2022-09-22T02:48:13.651Z,90.90
2022-09-22T02:49:13.698Z,90.90
2022-09-22T02:50:13.816Z,91.30
2022-09-22T02:51:13.787Z,91.50
2022-09-22T02:52:13.737Z,92.00
2022-09-22T02:53:13.646Z,92.10
2022-09-22T02:54:13.557Z,92.20
2022-09-22T02:55:13.584Z,92.40
2022-09-22T02:56:13.679Z,92.30
2022-09-22T02:57:13.688Z,92.00
2022-09-22T02:58:13.872Z,92.00
2022-09-22T02:59:14.143Z,91.90
2022-09-22T03:00:13.199Z,91.70
2022-09-22T03:01:13.320Z,91.50
2022-09-22T03:02:13.285Z,91.90
2022-09-22T03:03:13.531Z,92.60
2022-09-22T03:04:13.572Z,92.70
2022-09-22T03:05:13.809Z,92.60
2022-09-22T03:06:13.861Z,92.40
2022-09-22T03:07:13.827Z,92.20
2022-09-22T03:08:14.772Z,92.60
2022-09-22T03:09:13.664Z,92.50
2022-09-22T03:10:13.596Z,92.40
2022-09-22T03:11:13.521Z,92.50
2022-09-22T03:12:13.548Z,92.70
2022-09-22T03:13:17.403Z,93.00
2022-09-22T03:14:13.719Z,93.30
2022-09-22T03:15:13.911Z,93.60
2022-09-22T03:16:13.119Z,93.40
2022-09-22T03:17:13.346Z,93.10
2022-09-22T03:18:13.645Z,93.00
2022-09-22T03:19:13.807Z,93.30
2022-09-22T03:20:13.688Z,92.90
2022-09-22T03:21:13.599Z,92.80
2022-09-22T03:22:13.522Z,92.70
2022-09-22T03:23:13.647Z,92.40
2022-09-22T03:24:13.947Z,92.10
2022-09-22T03:25:12.932Z,92.40
2022-09-22T03:26:13.010Z,92.70
2022-09-22T03:27:13.028Z,92.40
2022-09-22T03:28:13.394Z,92.40
2022-09-22T03:29:13.512Z,92.70
2022-09-22T03:30:13.887Z,92.50
2022-09-22T03:31:14.015Z,92.30
2022-09-22T03:32:13.127Z,92.30
2022-09-22T03:33:13.633Z,92.20
2022-09-22T03:34:13.788Z,92.10
2022-09-22T03:35:13.734Z,92.20
2022-09-22T03:36:18.898Z,92.10
2022-09-22T03:37:14.242Z,91.80
2022-09-22T03:38:13.366Z,92.30
2022-09-22T03:39:13.357Z,92.10
2022-09-22T03:40:13.386Z,92.10
2022-09-22T03:41:13.449Z,91.80
2022-09-22T03:42:13.318Z,91.70
2022-09-22T03:43:16.581Z,91.60
2022-09-22T03:44:13.987Z,91.30
2022-09-22T03:45:13.187Z,91.70
2022-09-22T03:46:13.165Z,91.80
2022-09-22T03:47:13.221Z,91.90
2022-09-22T03:48:13.118Z,92.20
2022-09-22T03:49:14.138Z,92.00
2022-09-22T03:50:13.102Z,92.00
2022-09-22T03:51:13.554Z,92.10
2022-09-22T03:52:13.571Z,91.90
2022-09-22T03:53:13.809Z,91.90
2022-09-22T03:54:13.746Z,91.80
2022-09-22T03:55:13.658Z,92.20
2022-09-22T03:56:14.007Z,91.90
2022-09-22T03:57:13.189Z,91.60
2022-09-22T03:58:13.101Z,91.80
2022-09-22T03:59:13.439Z,91.60
2022-09-22T04:00:13.576Z,91.30
2022-09-22T04:01:13.757Z,91.80
2022-09-22T04:02:14.084Z,91.80
2022-09-22T04:03:13.657Z,91.80
2022-09-22T04:04:13.666Z,92.00
2022-09-22T04:05:14.170Z,92.00
2022-09-22T04:06:13.446Z,92.00
2022-09-22T04:07:13.467Z,92.00
2022-09-22T04:08:13.785Z,91.90
2022-09-22T04:09:14.107Z,91.80
2022-09-22T04:10:13.344Z,91.70
2022-09-22T04:11:13.611Z,91.70
2022-09-22T04:12:13.636Z,91.60
2022-09-22T04:13:13.954Z,91.70
2022-09-22T04:14:12.849Z,91.80
2022-09-22T04:15:13.787Z,91.80
2022-09-22T04:16:13.712Z,91.80
2022-09-22T04:17:13.774Z,91.60
2022-09-22T04:18:13.789Z,91.60
2022-09-22T04:19:13.783Z,91.70
2022-09-22T04:20:13.778Z,91.60
2022-09-22T04:21:13.950Z,91.60
2022-09-22T04:22:13.378Z,92.50
2022-09-22T04:23:13.371Z,92.60
2022-09-22T04:24:13.350Z,92.20
2022-09-22T04:25:13.288Z,92.10
2022-09-22T04:26:13.150Z,92.20
2022-09-22T04:27:20.046Z,92.40
2022-09-22T04:28:13.879Z,92.30
2022-09-22T04:29:14.011Z,92.60
2022-09-22T04:30:12.925Z,92.60
2022-09-22T04:31:12.956Z,92.50
2022-09-22T04:32:13.240Z,92.30
2022-09-22T04:33:13.485Z,92.00
2022-09-22T04:34:13.880Z,92.30
2022-09-22T04:35:12.739Z,91.90
2022-09-22T04:36:13.820Z,91.70
2022-09-22T04:37:13.954Z,91.70
2022-09-22T04:38:13.035Z,91.20
2022-09-22T04:39:13.027Z,91.40
2022-09-22T04:40:13.012Z,92.00
2022-09-22T04:41:12.893Z,92.00
2022-09-22T04:42:12.861Z,91.90
2022-09-22T04:43:14.125Z,92.00
2022-09-22T04:44:13.466Z,92.70
2022-09-22T04:45:13.374Z,93.50
2022-09-22T04:46:13.489Z,93.80
2022-09-22T04:47:13.468Z,93.90
2022-09-22T04:48:13.382Z,93.20
2022-09-22T04:49:13.222Z,92.80
2022-09-22T04:50:18.349Z,92.60
2022-09-22T04:51:13.475Z,92.20
2022-09-22T04:52:13.504Z,92.80
2022-09-22T04:53:13.626Z,92.70
2022-09-22T04:54:13.643Z,91.80
2022-09-22T04:55:13.641Z,91.70
2022-09-22T04:56:13.769Z,92.10
2022-09-22T04:57:18.328Z,91.70
2022-09-22T04:58:13.582Z,91.50
2022-09-22T04:59:13.803Z,92.20
2022-09-22T05:00:13.819Z,91.80
2022-09-22T05:01:13.785Z,92.50
2022-09-22T05:02:13.859Z,92.60
2022-09-22T05:03:16.517Z,92.50
2022-09-22T05:04:12.983Z,91.70
2022-09-22T05:05:13.503Z,92.30
2022-09-22T05:06:13.462Z,93.20
2022-09-22T05:07:13.591Z,94.10
2022-09-22T05:08:13.765Z,94.60
2022-09-22T05:09:13.905Z,94.70
2022-09-22T05:10:13.079Z,94.80
2022-09-22T05:11:13.071Z,95.00
2022-09-22T05:12:12.961Z,95.00
2022-09-22T05:13:13.182Z,95.30
2022-09-22T05:14:13.106Z,95.30
2022-09-22T05:15:13.190Z,95.10
2022-09-22T05:16:13.429Z,94.90
2022-09-22T05:17:13.554Z,94.60
2022-09-22T05:18:13.430Z,94.70
2022-09-22T05:19:13.224Z,94.60
2022-09-22T05:20:13.158Z,94.40
2022-09-22T05:21:18.096Z,94.20
2022-09-22T05:22:13.435Z,94.10
2022-09-22T05:23:13.507Z,94.10
2022-09-22T05:24:13.587Z,94.00
2022-09-22T05:25:13.809Z,93.80
2022-09-22T05:26:13.888Z,93.90
2022-09-22T05:27:12.849Z,94.20
2022-09-22T05:28:14.074Z,93.90
2022-09-22T05:29:13.070Z,93.50
2022-09-22T05:30:33.120Z,92.90
2022-09-22T05:31:13.362Z,92.80
2022-09-22T05:32:13.203Z,92.50
2022-09-22T05:33:13.034Z,92.40
2022-09-22T05:34:14.351Z,92.10
2022-09-22T05:35:13.320Z,91.70
2022-09-22T05:36:13.284Z,91.60
2022-09-22T05:37:13.247Z,92.10
2022-09-22T05:38:13.427Z,92.40
2022-09-22T05:39:13.511Z,92.70
2022-09-22T05:40:13.619Z,92.50
2022-09-22T05:41:13.644Z,92.00
2022-09-22T05:42:13.532Z,92.10
2022-09-22T05:43:13.708Z,92.30
2022-09-22T05:44:13.600Z,92.30
2022-09-22T05:45:13.479Z,92.10
2022-09-22T05:46:13.606Z,91.90
2022-09-22T05:47:13.816Z,91.60
2022-09-22T05:48:13.791Z,91.60
2022-09-22T05:49:13.839Z,91.40
2022-09-22T05:50:13.806Z,91.20
2022-09-22T05:51:13.679Z,91.40
2022-09-22T05:52:13.646Z,91.70
2022-09-22T05:53:13.551Z,92.00
2022-09-22T05:54:13.672Z,92.10
2022-09-22T05:55:13.752Z,91.90
2022-09-22T05:56:13.709Z,91.80
2022-09-22T05:57:13.703Z,91.50
2022-09-22T05:58:13.643Z,91.40
2022-09-22T05:59:14.003Z,91.30
2022-09-22T06:00:13.199Z,91.40
2022-09-22T06:01:13.411Z,91.20
2022-09-22T06:02:25.169Z,91.20
2022-09-22T06:03:13.794Z,91.20
2022-09-22T06:05:19.658Z,91.40
2022-09-22T06:06:14.507Z,91.30
2022-09-22T06:07:13.549Z,91.10
2022-09-22T06:08:13.693Z,91.10
2022-09-22T06:09:18.839Z,91.10
2022-09-22T06:10:14.364Z,91.00
2022-09-22T06:11:13.436Z,90.80
2022-09-22T06:12:13.594Z,90.90
2022-09-22T06:14:14.352Z,91.10
2022-09-22T06:15:13.635Z,91.20
2022-09-22T06:16:13.683Z,91.00
2022-09-22T06:17:13.802Z,91.00
2022-09-22T06:18:15.293Z,90.90
2022-09-22T06:19:17.586Z,90.90
2022-09-22T06:20:13.633Z,91.00
2022-09-22T06:21:13.685Z,91.00
2022-09-22T06:22:13.877Z,91.00
2022-09-22T06:23:14.111Z,90.90
2022-09-22T06:24:13.012Z,90.80
2022-09-22T06:25:13.009Z,90.80
2022-09-22T06:26:13.304Z,90.90
2022-09-22T06:27:13.506Z,90.90
2022-09-22T06:28:13.503Z,90.80
2022-09-22T06:29:18.849Z,90.70
2022-09-22T06:30:13.978Z,90.70
2022-09-22T06:32:13.646Z,91.20
2022-09-22T06:33:13.938Z,91.10
2022-09-22T06:34:13.249Z,91.00
2022-09-22T06:35:13.555Z,90.80
2022-09-22T06:36:13.766Z,90.90
2022-09-22T06:37:13.740Z,91.30
2022-09-22T06:38:13.918Z,91.30
2022-09-22T06:39:12.956Z,91.70
2022-09-22T06:40:17.343Z,91.90
2022-09-22T06:41:14.114Z,91.80
2022-09-22T06:42:13.156Z,91.50
2022-09-22T06:43:13.344Z,91.50
2022-09-22T06:44:13.518Z,91.30
2022-09-22T06:45:13.386Z,91.00
2022-09-22T06:46:13.424Z,90.50
2022-09-22T06:47:13.734Z,89.70
2022-09-22T06:48:13.711Z,89.60
2022-09-22T06:49:13.796Z,88.90
2022-09-22T06:50:13.941Z,88.50
2022-09-22T06:51:14.071Z,88.70
2022-09-22T06:52:13.120Z,88.50
2022-09-22T06:53:13.229Z,87.80
2022-09-22T06:54:13.268Z,87.60
2022-09-22T06:55:13.182Z,87.40
2022-09-22T06:56:13.026Z,87.10
2022-09-22T06:58:13.213Z,85.40
2022-09-22T06:59:13.311Z,85.20
2022-09-22T07:00:14.311Z,84.40
2022-09-22T07:01:13.522Z,84.70
2022-09-22T07:02:13.807Z,84.00
2022-09-22T07:03:14.108Z,83.50
2022-09-22T07:04:40.935Z,84.10
2022-09-22T07:05:12.879Z,83.70
2022-09-22T07:06:17.983Z,83.30
2022-09-22T07:07:13.125Z,83.50
2022-09-22T07:08:13.381Z,82.90
2022-09-22T07:09:13.330Z,82.70
2022-09-22T07:10:13.263Z,82.40
2022-09-22T07:11:13.354Z,82.50
2022-09-22T07:12:13.790Z,82.50
2022-09-22T07:13:14.156Z,82.60
2022-09-22T07:14:13.264Z,81.60
2022-09-22T07:15:13.214Z,81.50
2022-09-22T07:16:13.223Z,81.50
2022-09-22T07:17:18.234Z,81.30
2022-09-22T07:18:13.374Z,81.40
2022-09-22T07:19:13.541Z,81.80
2022-09-22T07:20:13.663Z,81.20
2022-09-22T07:21:13.840Z,81.10
2022-09-22T07:22:13.806Z,80.90
2022-09-22T07:23:13.840Z,81.20
2022-09-22T07:24:13.895Z,81.10
2022-09-22T07:25:12.916Z,81.20
2022-09-22T07:26:13.101Z,81.60
2022-09-22T07:27:13.395Z,81.10
2022-09-22T07:28:13.435Z,80.80
2022-09-22T07:29:13.747Z,81.40
2022-09-22T07:30:13.800Z,81.20
2022-09-22T07:31:13.768Z,80.80
2022-09-22T07:32:14.162Z,80.80
2022-09-22T07:33:13.242Z,80.20
2022-09-22T07:34:13.268Z,79.70
2022-09-22T07:35:13.621Z,79.10
2022-09-22T07:36:13.535Z,79.10
2022-09-22T07:37:13.887Z,79.40
2022-09-22T07:38:13.830Z,79.60
2022-09-22T07:39:19.085Z,78.30
2022-09-22T07:40:13.375Z,78.10
2022-09-22T07:41:13.504Z,77.10
2022-09-22T07:42:13.634Z,76.60
2022-09-22T07:43:13.787Z,76.60
2022-09-22T07:44:14.087Z,76.30
2022-09-22T07:45:13.240Z,75.90
2022-09-22T07:46:13.270Z,75.80
2022-09-22T07:47:13.363Z,76.50
2022-09-22T07:48:13.519Z,76.70
2022-09-22T07:49:13.737Z,75.60
2022-09-22T07:50:13.790Z,75.40
2022-09-22T07:51:16.746Z,74.70
2022-09-22T07:52:13.088Z,74.20
2022-09-22T07:53:13.082Z,73.50
2022-09-22T07:54:13.036Z,73.50
2022-09-22T07:55:13.013Z,73.20
2022-09-22T07:56:12.998Z,72.40
2022-09-22T07:57:18.205Z,71.50
2022-09-22T07:58:17.210Z,72.10
2022-09-22T07:59:13.500Z,72.30
2022-09-22T08:00:13.676Z,71.60
2022-09-22T08:01:13.908Z,71.20
2022-09-22T08:02:12.858Z,70.60
2022-09-22T08:03:12.776Z,71.20
2022-09-22T08:04:14.050Z,71.60
2022-09-22T08:05:18.187Z,71.60
2022-09-22T08:06:13.223Z,72.40
2022-09-22T08:07:13.409Z,71.70
2022-09-22T08:08:13.472Z,71.40
2022-09-22T08:09:13.437Z,70.20
2022-09-22T08:10:13.370Z,68.70
2022-09-22T08:11:13.229Z,68.90
2022-09-22T08:12:13.303Z,69.00
2022-09-22T08:13:13.411Z,69.90
2022-09-22T08:14:13.588Z,69.00
2022-09-22T08:15:13.430Z,68.80
2022-09-22T08:16:13.539Z,69.40
2022-09-22T08:17:13.950Z,69.60
2022-09-22T08:18:13.112Z,69.20
2022-09-22T08:19:13.271Z,69.40
2022-09-22T08:20:13.486Z,68.80
2022-09-22T08:21:13.647Z,68.50
2022-09-22T08:22:13.662Z,68.00
2022-09-22T08:23:13.689Z,67.70
2022-09-22T08:24:13.504Z,68.10
2022-09-22T08:25:13.507Z,68.50
2022-09-22T08:26:13.457Z,67.60
2022-09-22T08:27:13.829Z,67.40
2022-09-22T08:28:13.798Z,67.50
2022-09-22T08:29:13.896Z,67.70
2022-09-22T08:30:12.957Z,67.10
2022-09-22T08:31:18.056Z,67.50
2022-09-22T08:32:13.028Z,68.20
2022-09-22T08:33:13.054Z,66.90
2022-09-22T08:34:18.382Z,66.70
2022-09-22T08:35:13.679Z,65.70
2022-09-22T08:36:13.612Z,64.90
2022-09-22T08:37:13.740Z,64.70
2022-09-22T08:38:14.088Z,64.50
2022-09-22T08:39:13.200Z,64.40
2022-09-22T08:40:13.153Z,64.30
2022-09-22T08:41:13.271Z,65.20
2022-09-22T08:42:13.159Z,65.20
2022-09-22T08:43:13.091Z,63.00
2022-09-22T08:44:13.230Z,60.90
2022-09-22T08:45:13.223Z,60.90
2022-09-22T08:46:13.693Z,60.00
2022-09-22T08:47:15.348Z,59.50
2022-09-22T08:48:18.626Z,59.30
2022-09-22T08:49:13.702Z,58.90
2022-09-22T08:50:13.582Z,58.50
2022-09-22T08:51:13.554Z,58.70
2022-09-22T08:52:15.112Z,57.60
2022-09-22T08:53:13.174Z,57.30
2022-09-22T08:54:13.166Z,56.80
2022-09-22T08:55:13.370Z,56.70
2022-09-22T08:56:13.400Z,56.20
2022-09-22T08:57:13.526Z,55.20
2022-09-22T08:58:13.459Z,54.80
2022-09-22T08:59:13.402Z,54.10
2022-09-22T09:00:15.190Z,55.10
2022-09-22T09:01:13.166Z,54.80
2022-09-22T09:02:13.601Z,55.10
2022-09-22T09:03:13.581Z,53.70
2022-09-22T09:04:13.692Z,52.70
2022-09-22T09:05:13.561Z,54.50
2022-09-22T09:06:13.615Z,53.80
2022-09-22T09:07:13.596Z,53.60
2022-09-22T09:08:13.657Z,53.40
2022-09-22T09:09:13.741Z,53.80
2022-09-22T09:10:14.032Z,52.20
2022-09-22T09:11:13.200Z,52.80
2022-09-22T09:12:13.558Z,53.00
2022-09-22T09:13:14.014Z,52.90
2022-09-22T09:14:13.061Z,52.60
2022-09-22T09:15:13.449Z,52.40
2022-09-22T09:16:13.598Z,52.30
2022-09-22T09:17:13.732Z,52.60
2022-09-22T09:18:13.892Z,52.60
2022-09-22T09:19:13.123Z,52.30
2022-09-22T09:20:13.231Z,52.10
2022-09-22T09:21:13.644Z,52.20
2022-09-22T09:22:13.883Z,50.90
2022-09-22T09:23:12.833Z,51.60
2022-09-22T09:25:27.780Z,50.30
2022-09-22T09:26:13.363Z,49.40
2022-09-22T09:27:13.606Z,49.90
2022-09-22T09:28:14.160Z,50.60
2022-09-22T09:29:13.049Z,50.40
2022-09-22T09:30:13.052Z,49.80
2022-09-22T09:31:13.325Z,48.30
2022-09-22T09:32:13.358Z,49.70
2022-09-22T09:33:13.231Z,49.30
2022-09-22T09:34:13.612Z,48.30
2022-09-22T09:35:13.660Z,46.20
2022-09-22T09:36:13.974Z,48.30
2022-09-22T09:37:13.111Z,46.30
2022-09-22T09:38:18.404Z,46.40
2022-09-22T09:39:13.456Z,47.20
2022-09-22T09:40:13.653Z,46.90
2022-09-22T09:41:13.547Z,47.20
2022-09-22T09:42:13.800Z,47.10
2022-09-22T09:43:14.896Z,46.70
2022-09-22T09:44:18.068Z,47.00
2022-09-22T09:45:13.079Z,46.10
2022-09-22T09:46:13.282Z,45.40
2022-09-22T09:47:13.941Z,45.60
2022-09-22T09:48:13.048Z,45.40
2022-09-22T09:49:12.892Z,44.30
2022-09-22T09:50:12.791Z,43.80
2022-09-22T09:51:13.813Z,44.50
2022-09-22T09:52:13.653Z,44.80
2022-09-22T09:53:13.622Z,43.60
2022-09-22T09:54:17.037Z,42.40
2022-09-22T09:55:13.567Z,43.20
2022-09-22T09:56:13.794Z,44.10
2022-09-22T09:57:14.822Z,43.90
2022-09-22T09:58:13.881Z,42.00
2022-09-22T09:59:13.991Z,40.20
2022-09-22T10:00:13.936Z,39.10
2022-09-22T10:01:12.932Z,39.50
2022-09-22T10:02:12.923Z,36.90
2022-09-22T10:03:18.145Z,37.40
2022-09-22T10:04:13.260Z,37.70
2022-09-22T10:05:13.182Z,35.80
2022-09-22T10:06:13.061Z,36.20
2022-09-22T10:07:13.195Z,34.60
2022-09-22T10:08:13.319Z,33.60
2022-09-22T10:09:14.306Z,32.40
2022-09-22T10:10:13.335Z,33.70
2022-09-22T10:11:13.457Z,34.30
2022-09-22T10:12:13.373Z,32.40
2022-09-22T10:13:16.042Z,32.70
2022-09-22T10:14:13.097Z,32.10
2022-09-22T10:15:13.348Z,32.10
2022-09-22T10:16:13.562Z,32.40
2022-09-22T10:17:13.450Z,31.90
2022-09-22T10:18:14.035Z,31.30
2022-09-22T10:19:16.338Z,32.00
2022-09-22T10:20:13.514Z,31.90
2022-09-22T10:21:13.451Z,30.20
2022-09-22T10:22:13.552Z,30.70
2022-09-22T10:24:14.088Z,29.10
2022-09-22T10:25:13.342Z,30.70
2022-09-22T10:26:13.402Z,29.00
2022-09-22T10:27:14.324Z,26.70
2022-09-22T10:28:13.590Z,27.10
2022-09-22T10:29:13.479Z,28.70
2022-09-22T10:30:13.498Z,28.70
2022-09-22T10:31:13.774Z,30.40
2022-09-22T10:32:13.744Z,29.60
2022-09-22T10:33:13.779Z,30.00
2022-09-22T10:34:13.908Z,28.50
2022-09-22T10:35:12.807Z,29.30
2022-09-22T10:36:13.778Z,31.00
2022-09-22T10:37:13.887Z,30.10
2022-09-22T10:38:14.259Z,30.30
2022-09-22T10:39:13.603Z,31.30
2022-09-22T10:40:13.798Z,31.00
2022-09-22T10:41:12.914Z,30.10
2022-09-22T10:42:12.983Z,30.20
2022-09-22T10:43:13.027Z,31.40
2022-09-22T10:44:37.441Z,32.50
2022-09-22T10:45:14.650Z,34.00
2022-09-22T10:46:13.657Z,33.30
2022-09-22T10:47:15.037Z,34.50
2022-09-22T10:48:12.985Z,34.40
2022-09-22T10:49:12.997Z,34.60
2022-09-22T10:50:12.856Z,37.90
2022-09-22T10:51:15.179Z,39.00
2022-09-22T10:52:13.052Z,36.20
2022-09-22T10:53:13.352Z,35.90
2022-09-22T10:54:18.518Z,36.70
2022-09-22T10:55:19.646Z,37.30
2022-09-22T10:56:25.166Z,37.30
2022-09-22T10:57:13.229Z,37.20
2022-09-22T10:58:14.728Z,35.30
2022-09-22T10:59:13.656Z,36.40
2022-09-22T11:00:14.518Z,35.40
2022-09-22T11:01:13.728Z,34.40
2022-09-22T11:02:14.097Z,32.00
2022-09-22T11:03:14.518Z,31.70
2022-09-22T11:04:13.825Z,30.20
2022-09-22T11:05:12.841Z,29.00
2022-09-22T11:06:15.122Z,29.10
2022-09-22T11:07:14.723Z,28.20
2022-09-22T11:08:14.910Z,29.50
2022-09-22T11:09:17.347Z,31.90
2022-09-22T11:10:18.842Z,31.40
2022-09-22T11:11:13.677Z,33.00
2022-09-22T11:12:16.975Z,33.60
2022-09-22T11:13:14.655Z,34.60
2022-09-22T11:14:16.869Z,35.90
2022-09-22T11:15:13.754Z,35.40
2022-09-22T11:16:15.407Z,35.40
2022-09-22T11:17:17.777Z,33.30
2022-09-22T11:18:14.056Z,31.50
2022-09-22T11:19:14.893Z,30.80
2022-09-22T11:20:12.801Z,29.80
2022-09-22T11:21:17.382Z,29.90
2022-09-22T11:22:17.436Z,29.50
2022-09-22T11:23:13.457Z,29.80
2022-09-22T11:24:17.540Z,30.00
2022-09-22T11:25:16.333Z,31.10
2022-09-22T11:26:13.492Z,33.90
2022-09-22T11:27:13.395Z,34.80
2022-09-22T11:28:16.763Z,35.90
2022-09-22T11:29:18.384Z,35.50
2022-09-22T11:30:13.500Z,35.20
2022-09-22T11:31:14.970Z,33.60
2022-09-22T11:32:14.764Z,35.90
2022-09-22T11:33:16.775Z,36.00
2022-09-22T11:34:16.099Z,35.10
2022-09-22T11:35:18.002Z,35.20
2022-09-22T11:36:16.511Z,35.20
2022-09-22T11:37:15.099Z,33.90
2022-09-22T11:38:14.341Z,33.30
2022-09-22T11:39:13.328Z,34.10
2022-09-22T11:40:16.446Z,35.30
2022-09-22T11:41:13.364Z,36.10
2022-09-22T11:42:15.001Z,36.20
2022-09-22T11:43:14.640Z,33.50
2022-09-22T11:44:22.915Z,33.80
2022-09-22T11:45:15.263Z,33.90
2022-09-22T11:46:13.179Z,34.70
2022-09-22T11:47:16.262Z,33.70
2022-09-22T11:48:16.600Z,34.30
2022-09-22T11:49:18.163Z,33.00
2022-09-22T11:50:16.783Z,34.60
2022-09-22T11:51:16.871Z,36.10
2022-09-22T11:52:17.133Z,35.30
2022-09-22T11:53:18.094Z,35.20
2022-09-22T11:54:14.910Z,34.90
2022-09-22T11:55:15.837Z,35.10
2022-09-22T11:56:13.775Z,35.10
2022-09-22T11:57:15.210Z,35.60
2022-09-22T11:58:14.535Z,35.00
2022-09-22T11:59:13.665Z,35.10
2022-09-22T12:00:18.241Z,35.60
2022-09-22T12:01:16.350Z,35.20
2022-09-22T12:02:16.786Z,34.70
2022-09-22T12:03:13.840Z,31.10
2022-09-22T12:04:16.710Z,29.00
2022-09-22T12:05:13.693Z,28.30
2022-09-22T12:06:17.230Z,27.70
2022-09-22T12:07:19.586Z,27.80
2022-09-22T12:08:18.518Z,27.90
2022-09-22T12:09:16.655Z,26.60
2022-09-22T12:10:16.484Z,26.70
2022-09-22T12:11:16.605Z,27.80
2022-09-22T12:12:18.083Z,27.90
2022-09-22T12:13:18.117Z,30.90
2022-09-22T12:14:18.490Z,31.70
2022-09-22T12:15:17.794Z,32.00
2022-09-22T12:16:15.657Z,32.10
2022-09-22T12:17:17.735Z,32.60
2022-09-22T12:18:16.878Z,32.70
2022-09-22T12:19:20.876Z,31.40
2022-09-22T12:21:56.311Z,30.00
2022-09-22T12:22:18.726Z,30.60
2022-09-22T12:23:16.828Z,29.80
2022-09-22T12:24:17.008Z,31.00
2022-09-22T12:25:21.207Z,32.60
2022-09-22T12:26:16.372Z,31.80
2022-09-22T12:27:17.789Z,32.10
2022-09-22T12:28:16.223Z,33.10
2022-09-22T12:29:18.575Z,34.10
2022-09-22T12:30:19.142Z,35.20
2022-09-22T12:31:19.056Z,32.70
2022-09-22T12:32:18.801Z,32.50
2022-09-22T12:33:20.691Z,32.80
2022-09-22T12:34:17.980Z,33.80
2022-09-22T12:35:17.477Z,34.30
2022-09-22T12:36:18.947Z,33.80
2022-09-22T12:37:17.574Z,33.60
2022-09-22T12:38:18.952Z,36.50
2022-09-22T12:39:17.557Z,35.80
2022-09-22T12:40:20.298Z,34.10
2022-09-22T12:41:18.728Z,35.00
2022-09-22T12:42:18.970Z,34.00
2022-09-22T12:43:17.458Z,33.70
2022-09-22T12:44:17.801Z,33.80
2022-09-22T12:45:19.413Z,31.90
2022-09-22T12:46:18.710Z,32.80
2022-09-22T12:47:15.355Z,32.60
2022-09-22T12:48:18.711Z,32.30
2022-09-22T12:49:19.043Z,33.80
2022-09-22T12:50:15.894Z,34.10
2022-09-22T12:51:16.192Z,34.60
2022-09-22T12:52:14.742Z,35.10
2022-09-22T12:53:14.046Z,35.70
2022-09-22T12:54:14.707Z,35.00
2022-09-22T12:55:16.969Z,33.90
2022-09-22T12:56:14.769Z,32.90
2022-09-22T12:57:16.080Z,33.70
2022-09-22T12:58:15.972Z,34.20
2022-09-22T12:59:18.158Z,34.90